createdAt,value
2023-04-30T00:03:53.681Z,95922.25
2023-04-30T00:08:56.406Z,95905.75
2023-04-30T00:13:59.078Z,95920.44
2023-04-30T00:19:01.450Z,95925.88
2023-04-30T00:24:04.152Z,95912.38
2023-04-30T00:29:07.198Z,95929.88
2023-04-30T00:34:09.977Z,95907.75
2023-04-30T00:39:12.878Z,95915.88
2023-04-30T00:44:15.109Z,95921.09
2023-04-30T00:49:17.775Z,95924.03
2023-04-30T00:54:21.708Z,95923.06
2023-04-30T00:59:25.476Z,95896.50
2023-04-30T01:04:29.060Z,95905.84
2023-04-30T01:09:32.673Z,95917.06
2023-04-30T01:14:48.497Z,95903.00
2023-04-30T01:19:51.505Z,95902.84
2023-04-30T01:25:13.033Z,95902.81
2023-04-30T01:30:17.212Z,95855.56
2023-04-30T01:35:19.839Z,95853.50
2023-04-30T01:40:28.757Z,95889.38
2023-04-30T01:45:43.520Z,95902.34
2023-04-30T01:51:02.379Z,95892.56
2023-04-30T01:56:09.137Z,95876.81
2023-04-30T02:01:27.616Z,95896.38
2023-04-30T02:06:31.547Z,95889.38
2023-04-30T02:11:34.693Z,95874.97
2023-04-30T02:16:37.457Z,95872.38
2023-04-30T02:21:40.271Z,95881.75
2023-04-30T02:26:43.051Z,95880.88
2023-04-30T02:31:45.813Z,95865.03
2023-04-30T02:36:48.070Z,95883.22
2023-04-30T02:41:50.767Z,95905.38
2023-04-30T02:46:53.410Z,95881.06
2023-04-30T02:51:56.608Z,95889.78
2023-04-30T02:56:58.848Z,95896.81
2023-04-30T03:02:01.778Z,95898.63
2023-04-30T03:07:04.481Z,95868.25
2023-04-30T03:12:07.119Z,95867.56
2023-04-30T03:17:09.935Z,95867.56
2023-04-30T03:22:12.617Z,95870.00
2023-04-30T03:27:17.195Z,95882.56
2023-04-30T03:32:19.910Z,95897.25
2023-04-30T03:37:22.628Z,95875.50
2023-04-30T03:42:25.365Z,95909.25
2023-04-30T03:47:27.602Z,95874.81
2023-04-30T03:52:31.804Z,95923.56
2023-04-30T03:57:34.386Z,95896.78
2023-04-30T04:02:38.165Z,95929.13
2023-04-30T04:07:41.612Z,95902.38
2023-04-30T04:12:44.540Z,95921.28
2023-04-30T04:17:47.240Z,95917.69
2023-04-30T04:22:50.314Z,95906.50
2023-04-30T04:27:53.081Z,95899.25
2023-04-30T04:32:55.846Z,95905.97
2023-04-30T04:37:58.150Z,95895.91
2023-04-30T04:43:00.898Z,95895.38
2023-04-30T04:48:03.559Z,95901.28
2023-04-30T04:53:06.485Z,95889.56
2023-04-30T04:58:08.760Z,95908.09
2023-04-30T05:03:11.479Z,95882.47
2023-04-30T05:08:14.158Z,95918.88
2023-04-30T05:13:16.345Z,95905.31
2023-04-30T05:18:19.085Z,95909.38
2023-04-30T05:23:21.968Z,95910.25
2023-04-30T05:28:24.668Z,95921.50
2023-04-30T05:33:27.734Z,95908.50
2023-04-30T05:38:30.458Z,95894.66
2023-04-30T05:43:33.168Z,95903.56
2023-04-30T05:48:35.399Z,95909.25
2023-04-30T05:53:37.946Z,95905.53
2023-04-30T05:58:40.421Z,95912.69
2023-04-30T06:03:43.103Z,95906.78
2023-04-30T06:08:45.868Z,95887.34
2023-04-30T06:13:49.760Z,95894.28
2023-04-30T06:18:53.686Z,95885.31
2023-04-30T06:23:56.818Z,95887.66
2023-04-30T06:28:59.001Z,95863.81
2023-04-30T06:34:01.691Z,95886.31
2023-04-30T06:39:05.647Z,95875.31
2023-04-30T06:44:09.548Z,95856.72
2023-04-30T06:49:12.278Z,95877.84
2023-04-30T06:54:15.063Z,95881.69
2023-04-30T06:59:18.138Z,95849.41
2023-04-30T07:04:20.652Z,95876.50
2023-04-30T07:09:23.120Z,95875.22
2023-04-30T07:14:25.774Z,95892.97
2023-04-30T07:19:27.854Z,95895.19
2023-04-30T07:24:31.654Z,95886.91
2023-04-30T07:29:34.636Z,95883.66
2023-04-30T07:34:37.232Z,95885.59
2023-04-30T07:39:39.999Z,95897.03
2023-04-30T07:44:42.653Z,95893.97
2023-04-30T07:49:45.372Z,95891.19
2023-04-30T07:54:47.989Z,95892.59
2023-04-30T07:59:51.418Z,95894.97
2023-04-30T08:04:55.896Z,95917.06
2023-04-30T08:09:58.514Z,95911.78
2023-04-30T08:15:03.542Z,95907.09
2023-04-30T08:20:07.338Z,95913.22
2023-04-30T08:25:12.986Z,95915.41
2023-04-30T08:30:15.722Z,95903.94
2023-04-30T08:35:18.455Z,95880.16
2023-04-30T08:40:23.561Z,95901.09
2023-04-30T08:45:29.267Z,95912.91
2023-04-30T08:50:32.496Z,95903.56
2023-04-30T08:55:35.562Z,95905.44
2023-04-30T09:00:39.980Z,95908.06
2023-04-30T09:05:42.796Z,95905.75
2023-04-30T09:10:45.516Z,95910.66
2023-04-30T09:15:52.401Z,95899.09
2023-04-30T09:21:02.194Z,95874.13
2023-04-30T09:26:04.963Z,95862.97
2023-04-30T09:31:22.381Z,95875.66
2023-04-30T09:36:25.098Z,95834.47
2023-04-30T09:41:29.614Z,95852.47
2023-04-30T09:46:34.885Z,95865.25
2023-04-30T09:51:54.851Z,95872.44
2023-04-30T09:56:59.538Z,95878.75
2023-04-30T10:02:04.706Z,95869.28
2023-04-30T10:07:12.516Z,95879.44
2023-04-30T10:12:23.830Z,95872.56
2023-04-30T10:17:29.909Z,95882.97
2023-04-30T10:22:35.352Z,95875.66
2023-04-30T10:27:38.282Z,95856.81
2023-04-30T10:32:56.353Z,95863.69
2023-04-30T10:38:16.296Z,95846.66
2023-04-30T10:43:20.172Z,95847.66
2023-04-30T10:48:27.578Z,95850.41
2023-04-30T10:53:34.029Z,95836.63
2023-04-30T10:58:39.644Z,95831.47
2023-04-30T11:04:03.306Z,95843.84
2023-04-30T11:09:05.947Z,95835.38
2023-04-30T11:14:11.628Z,95839.44
2023-04-30T11:19:15.269Z,95847.59
2023-04-30T11:24:20.401Z,95848.41
2023-04-30T11:29:23.126Z,95839.41
2023-04-30T11:34:26.231Z,95836.75
2023-04-30T11:39:30.038Z,95854.06
2023-04-30T11:44:32.871Z,95850.44
2023-04-30T11:49:35.717Z,95845.78
2023-04-30T11:54:38.489Z,95839.31
2023-04-30T11:59:42.508Z,95850.94
2023-04-30T12:04:45.510Z,95826.84
2023-04-30T12:09:57.741Z,95837.38
2023-04-30T12:15:12.528Z,95817.50
2023-04-30T12:20:16.069Z,95835.75
2023-04-30T12:25:20.988Z,95812.78
2023-04-30T12:30:27.355Z,95829.00
2023-04-30T12:35:32.700Z,95829.88
2023-04-30T12:40:35.926Z,95800.16
2023-04-30T12:45:56.034Z,95810.75
2023-04-30T12:51:01.428Z,95810.97
2023-04-30T12:56:17.754Z,95803.47
2023-04-30T13:01:23.299Z,95776.44
2023-04-30T13:06:27.856Z,95800.81
2023-04-30T13:11:30.409Z,95771.22
2023-04-30T13:16:33.254Z,95779.84
2023-04-30T13:21:35.971Z,95774.19
2023-04-30T13:26:38.133Z,95759.91
2023-04-30T13:31:42.609Z,95758.09
2023-04-30T13:36:47.086Z,95766.69
2023-04-30T13:41:49.639Z,95763.06
2023-04-30T13:46:52.447Z,95770.53
2023-04-30T13:51:55.120Z,95766.66
2023-04-30T13:56:59.889Z,95775.09
2023-04-30T14:02:02.750Z,95772.59
2023-04-30T14:07:04.995Z,95780.94
2023-04-30T14:12:07.636Z,95737.94
2023-04-30T14:17:09.923Z,95759.63
2023-04-30T14:22:12.773Z,95778.84
2023-04-30T14:27:15.619Z,95775.13
2023-04-30T14:32:18.528Z,95767.13
2023-04-30T14:37:20.874Z,95788.19
2023-04-30T14:42:26.737Z,95741.59
2023-04-30T14:47:29.289Z,95742.34
2023-04-30T14:52:36.641Z,95761.53
2023-04-30T14:57:39.594Z,95765.13
2023-04-30T15:02:42.251Z,95757.78
2023-04-30T15:07:44.779Z,95776.41
2023-04-30T15:12:47.421Z,95781.75
2023-04-30T15:17:49.755Z,95781.75
2023-04-30T15:22:55.118Z,95743.06
2023-04-30T15:27:58.542Z,95765.88
2023-04-30T15:33:01.251Z,95778.16
2023-04-30T15:38:03.536Z,95801.88
2023-04-30T15:43:06.530Z,95797.94
2023-04-30T15:48:09.362Z,95758.09
2023-04-30T15:53:11.577Z,95795.28
2023-04-30T15:58:14.130Z,95790.22
2023-04-30T16:03:16.953Z,95793.53
2023-04-30T16:08:20.002Z,95777.63
2023-04-30T16:13:22.270Z,95785.81
2023-04-30T16:18:25.127Z,95806.03
2023-04-30T16:23:28.717Z,95812.91
2023-04-30T16:28:31.508Z,95792.56
2023-04-30T16:33:34.081Z,95805.16
2023-04-30T16:38:37.328Z,95801.09
2023-04-30T16:43:40.175Z,95812.22
2023-04-30T16:48:42.826Z,95833.63
2023-04-30T16:53:45.609Z,95840.38
2023-04-30T16:58:48.323Z,95839.97
2023-04-30T17:03:51.622Z,95846.88
2023-04-30T17:08:54.776Z,95847.47
2023-04-30T17:13:58.395Z,95817.28
2023-04-30T17:19:00.939Z,95864.31
2023-04-30T17:24:04.031Z,95874.53
2023-04-30T17:29:06.816Z,95876.81
2023-04-30T17:34:09.122Z,95889.72
2023-04-30T17:39:12.992Z,95902.84
2023-04-30T17:44:19.691Z,95892.97
2023-04-30T17:49:22.224Z,95921.53
2023-04-30T17:54:25.833Z,95914.28
2023-04-30T17:59:30.521Z,95946.63
2023-04-30T18:04:32.757Z,95942.38
2023-04-30T18:09:36.244Z,95969.28
2023-04-30T18:14:38.989Z,95965.47
2023-04-30T18:19:44.775Z,95971.31
2023-04-30T18:24:47.496Z,95973.66
2023-04-30T18:29:50.493Z,96010.13
2023-04-30T18:34:52.615Z,96005.09
2023-04-30T18:39:55.925Z,96019.91
2023-04-30T18:44:59.079Z,96007.41
2023-04-30T18:50:01.268Z,96025.28
2023-04-30T18:55:06.681Z,96027.06
2023-04-30T19:00:10.662Z,96026.50
2023-04-30T19:05:14.408Z,96032.78
2023-04-30T19:10:17.078Z,96024.84
2023-04-30T19:15:19.930Z,96043.19
2023-04-30T19:20:22.577Z,96052.91
2023-04-30T19:25:27.859Z,96036.00
2023-04-30T19:30:30.763Z,96021.16
2023-04-30T19:35:35.455Z,96045.28
2023-04-30T19:40:38.083Z,96041.69
2023-04-30T19:45:57.627Z,96049.97
2023-04-30T19:51:09.627Z,95999.28
2023-04-30T19:56:12.645Z,96040.53
2023-04-30T20:01:15.546Z,96063.28
2023-04-30T20:06:18.830Z,96077.47
2023-04-30T20:11:21.571Z,96064.47
2023-04-30T20:16:24.313Z,96047.59
2023-04-30T20:21:33.189Z,96055.22
2023-04-30T20:26:38.373Z,96066.00
2023-04-30T20:31:46.083Z,96061.25
2023-04-30T20:36:49.777Z,96070.00
2023-04-30T20:41:55.386Z,96085.00
2023-04-30T20:46:58.261Z,96081.25
2023-04-30T20:52:00.816Z,96037.09
2023-04-30T20:57:03.418Z,96075.34
2023-04-30T21:02:06.134Z,96093.78
2023-04-30T21:07:08.471Z,96056.31
2023-04-30T21:12:11.979Z,96101.84
2023-04-30T21:22:45.872Z,96108.00
2023-04-30T21:27:52.501Z,96103.50
2023-04-30T21:33:01.104Z,96086.47
2023-04-30T21:38:06.768Z,96133.63
2023-04-30T21:43:12.033Z,96107.59
2023-04-30T21:48:58.176Z,96158.81
2023-04-30T21:54:00.771Z,96114.16
2023-04-30T21:59:03.396Z,96125.22
2023-04-30T22:04:06.459Z,96136.06
2023-04-30T22:09:11.544Z,96157.03
2023-04-30T22:14:14.175Z,96135.88
2023-04-30T22:19:17.022Z,96165.25
2023-04-30T22:24:19.735Z,96164.25
2023-04-30T22:29:21.829Z,96141.88
2023-04-30T22:34:24.409Z,96124.91
2023-04-30T22:39:26.938Z,96163.75
2023-04-30T22:44:30.044Z,96147.47
2023-04-30T22:49:33.146Z,96145.03
2023-04-30T22:54:36.233Z,96141.66
2023-04-30T22:59:39.773Z,96127.63
2023-04-30T23:04:42.354Z,96157.16
2023-04-30T23:09:45.602Z,96135.22
2023-04-30T23:14:48.365Z,96162.94
2023-04-30T23:19:50.764Z,96159.63
2023-04-30T23:24:53.473Z,96139.03
2023-04-30T23:29:56.432Z,96160.84
2023-04-30T23:34:59.386Z,96143.38
2023-04-30T23:40:01.797Z,96146.28
2023-04-30T23:45:04.732Z,96119.81
2023-04-30T23:50:08.126Z,96145.72
2023-04-30T23:55:11.404Z,96159.66
